Time;durP1;ratioP1;P1;durP2;ratioP2;P2;SDS_P1;SDS_P2;PMS_P1;PMS_P2;Temp;Humidity;BMP_temperature;BMP_pressure;BME280_temperature;BME280_humidity;BME280_pressure;Samples;Min_cycle;Max_cycle;Signal;HPM_P1;HPM_P2
2020/12/26 00:01:20;;;;;;;3.72;2.47;;;;;;;10.62;57.28;99328.92;1753455;79;21164;-61
2020/12/26 00:03:50;;;;;;;3.58;2.70;;;;;;;10.60;57.28;99330.45;1762132;79;21155;-60
2020/12/26 00:06:19;;;;;;;3.12;2.27;;;;;;;10.59;57.26;99331.44;1758998;81;21178;-61
2020/12/26 00:08:46;;;;;;;3.02;2.22;;;;;;;10.59;57.25;99333.27;1761859;79;21158;-61
2020/12/26 00:11:15;;;;;;;3.67;2.60;;;;;;;10.57;57.23;99326.81;1764679;79;21199;-60
2020/12/26 00:13:44;;;;;;;3.33;2.40;;;;;;;10.58;57.25;99329.77;1763106;79;21202;-63
2020/12/26 00:16:14;;;;;;;3.52;2.62;;;;;;;10.56;57.20;99333.11;1751611;79;21154;-61
2020/12/26 00:18:42;;;;;;;3.08;2.30;;;;;;;10.55;57.18;99336.78;1762952;79;21171;-62
2020/12/26 00:21:14;;;;;;;3.15;2.20;;;;;;;10.56;57.17;99340.26;1764361;81;21614;-63
2020/12/26 00:23:41;;;;;;;2.87;2.20;;;;;;;10.55;57.14;99343.42;1750648;81;21199;-62
2020/12/26 00:26:09;;;;;;;3.12;2.10;;;;;;;10.54;57.11;99349.73;1756903;80;21204;-62
2020/12/26 00:28:36;;;;;;;3.27;2.37;;;;;;;10.54;57.08;99348.40;1754649;81;21591;-63
2020/12/26 00:31:04;;;;;;;2.47;1.92;;;;;;;10.54;57.04;99348.91;1762076;79;21206;-63
2020/12/26 00:33:32;;;;;;;3.75;2.45;;;;;;;10.53;57.03;99349.42;1761370;79;21175;-62
2020/12/26 00:36:01;;;;;;;3.05;2.15;;;;;;;10.53;57.01;99357.39;1753625;79;21207;-63
2020/12/26 00:38:28;;;;;;;3.40;2.27;;;;;;;10.53;57.00;99356.57;1755570;79;21619;-64
2020/12/26 00:40:56;;;;;;;3.60;2.40;;;;;;;10.52;56.98;99353.58;1749276;79;21992;-63
2020/12/26 00:43:23;;;;;;;3.15;2.12;;;;;;;10.52;56.96;99359.70;1755746;79;21191;-64
2020/12/26 00:45:50;;;;;;;2.55;2.05;;;;;;;10.51;56.95;99356.73;1752966;79;21198;-63
2020/12/26 00:48:18;;;;;;;3.05;2.15;;;;;;;10.52;56.94;99362.88;1756570;79;21210;-63
2020/12/26 00:50:45;;;;;;;2.83;2.25;;;;;;;10.51;56.91;99366.55;1756913;79;21171;-63
2020/12/26 00:53:14;;;;;;;2.77;2.08;;;;;;;10.51;56.87;99366.03;1760353;81;21163;-64
2020/12/26 00:55:41;;;;;;;2.95;1.87;;;;;;;10.50;56.88;99360.89;1753985;79;21357;-63
2020/12/26 00:58:09;;;;;;;3.40;2.33;;;;;;;10.50;56.83;99363.04;1731137;81;21622;-63
2020/12/26 01:00:37;;;;;;;3.05;2.27;;;;;;;10.49;56.81;99357.42;1755829;81;21224;-64
2020/12/26 01:03:06;;;;;;;3.37;2.35;;;;;;;10.49;56.80;99361.88;1748162;81;21158;-61
2020/12/26 01:05:35;;;;;;;3.17;2.15;;;;;;;10.50;56.79;99360.89;1754227;79;21186;-63
2020/12/26 01:08:02;;;;;;;3.42;2.20;;;;;;;10.48;56.77;99371.69;1759032;79;22230;-62
2020/12/26 01:10:29;;;;;;;3.58;2.40;;;;;;;10.48;56.73;99364.23;1755008;79;21589;-62
2020/12/26 01:12:57;;;;;;;2.90;2.10;;;;;;;10.48;56.75;99369.03;1760078;79;21219;-62
2020/12/26 01:15:24;;;;;;;2.65;2.00;;;;;;;10.48;56.72;99372.20;1741298;80;22622;-62
2020/12/26 01:17:52;;;;;;;2.02;1.80;;;;;;;10.47;56.71;99374.03;1761693;81;21187;-63
2020/12/26 01:20:19;;;;;;;2.47;1.87;;;;;;;10.48;56.69;99368.21;1760531;79;21127;-62
2020/12/26 01:22:46;;;;;;;2.98;2.00;;;;;;;10.46;56.66;99366.23;1760347;79;21704;-62
2020/12/26 01:25:13;;;;;;;3.35;2.72;;;;;;;10.45;56.65;99367.23;1753719;81;21997;-62
2020/12/26 01:27:40;;;;;;;2.77;2.45;;;;;;;10.45;56.67;99371.20;1752933;80;21202;-63
2020/12/26 01:30:08;;;;;;;3.27;2.05;;;;;;;10.45;56.61;99369.88;1754709;79;21144;-62
2020/12/26 01:32:37;;;;;;;2.87;2.17;;;;;;;10.43;56.60;99369.57;1754952;79;21622;-62
2020/12/26 01:35:04;;;;;;;3.02;2.30;;;;;;;10.45;56.58;99376.52;1760354;81;21099;-64
2020/12/26 01:37:31;;;;;;;3.52;2.00;;;;;;;10.43;56.58;99374.89;1755825;79;21209;-62
2020/12/26 01:39:58;;;;;;;3.27;2.30;;;;;;;10.44;56.53;99374.38;1739253;79;21981;-64
2020/12/26 01:42:25;;;;;;;2.98;2.47;;;;;;;10.44;56.52;99374.38;1750723;81;21208;-63
2020/12/26 01:44:53;;;;;;;2.45;1.90;;;;;;;10.43;56.50;99372.23;1755506;79;21674;-62
2020/12/26 01:47:20;;;;;;;2.50;2.08;;;;;;;10.43;56.52;99374.06;1761747;79;21119;-63
2020/12/26 01:49:47;;;;;;;2.30;1.75;;;;;;;10.42;56.48;99373.22;1756626;79;21632;-62
2020/12/26 01:52:16;;;;;;;2.75;1.85;;;;;;;10.41;56.46;99364.94;1757949;81;21626;-62
2020/12/26 01:54:44;;;;;;;2.75;1.92;;;;;;;10.42;56.44;99360.45;1759220;79;21654;-62
2020/12/26 01:57:13;;;;;;;2.95;1.82;;;;;;;10.41;56.43;99360.11;1748321;81;21163;-62
2020/12/26 01:59:40;;;;;;;4.03;2.10;;;;;;;10.41;56.41;99367.59;1759111;79;21183;-62
2020/12/26 02:02:08;;;;;;;3.35;2.08;;;;;;;10.41;56.41;99370.73;1751703;79;21367;-62
2020/12/26 02:04:37;;;;;;;2.55;2.08;;;;;;;10.40;56.41;99370.42;1761151;79;21166;-62
2020/12/26 02:07:05;;;;;;;3.72;2.17;;;;;;;10.40;56.39;99374.41;1764941;79;21190;-62
2020/12/26 02:09:33;;;;;;;2.58;1.95;;;;;;;10.39;56.37;99369.61;1760236;79;21190;-61
2020/12/26 02:12:01;;;;;;;3.17;1.98;;;;;;;10.39;56.35;99367.42;1750039;79;21182;-62
2020/12/26 02:14:28;;;;;;;2.77;2.10;;;;;;;10.38;56.34;99369.27;1759775;79;21476;-62
2020/12/26 02:16:57;;;;;;;2.62;1.95;;;;;;;10.33;56.36;99362.83;1751639;79;21187;-62
2020/12/26 02:19:25;;;;;;;3.47;2.33;;;;;;;10.38;56.34;99378.56;1747087;79;21131;-63
2020/12/26 02:21:52;;;;;;;2.98;2.17;;;;;;;10.39;56.32;99377.57;1755985;79;21204;-62
2020/12/26 02:24:19;;;;;;;3.25;2.15;;;;;;;10.31;56.29;99369.63;1760951;79;21196;-62
2020/12/26 02:26:48;;;;;;;2.45;1.80;;;;;;;10.37;56.27;99386.70;1728103;81;21669;-62
2020/12/26 02:29:15;;;;;;;3.50;2.10;;;;;;;10.36;56.28;99385.88;1732342;81;21179;-61
2020/12/26 02:31:42;;;;;;;3.05;1.85;;;;;;;10.37;56.26;99394.18;1729609;81;21873;-62
2020/12/26 02:34:10;;;;;;;2.98;2.12;;;;;;;10.37;56.24;99387.55;1740493;81;21128;-63
2020/12/26 02:36:38;;;;;;;3.05;2.12;;;;;;;10.37;56.21;99388.88;1736922;81;21145;-62
2020/12/26 02:39:05;;;;;;;2.52;1.95;;;;;;;10.37;56.20;99398.16;1742008;81;21386;-63
2020/12/26 02:41:33;;;;;;;2.70;2.05;;;;;;;10.37;56.20;99399.97;1737990;81;21184;-63
2020/12/26 02:44:00;;;;;;;2.70;2.22;;;;;;;10.37;56.19;99396.84;1736377;81;21180;-63
2020/12/26 02:46:27;;;;;;;2.42;1.82;;;;;;;10.36;56.16;99397.00;1738956;81;21124;-63
2020/12/26 02:48:55;;;;;;;2.87;2.20;;;;;;;10.36;56.14;99399.16;1742050;81;21129;-64
2020/12/26 02:51:23;;;;;;;3.05;2.20;;;;;;;10.35;56.11;99396.19;1739408;81;23516;-64
2020/12/26 02:53:50;;;;;;;2.75;2.10;;;;;;;10.34;56.12;99391.86;1734368;81;21164;-64
2020/12/26 02:56:18;;;;;;;3.12;2.17;;;;;;;10.34;56.12;99385.23;1736801;81;21188;-63
2020/12/26 02:58:46;;;;;;;2.67;1.85;;;;;;;10.34;56.09;99386.55;1738717;81;21581;-63
2020/12/26 03:01:13;;;;;;;2.40;1.90;;;;;;;10.34;56.10;99393.70;1730928;81;21200;-62
2020/12/26 03:03:40;;;;;;;2.17;1.98;;;;;;;10.34;56.07;99399.83;1734571;81;22250;-62
2020/12/26 03:06:09;;;;;;;2.33;1.90;;;;;;;10.34;56.07;99400.34;1737711;81;21609;-62
2020/12/26 03:08:39;;;;;;;2.33;1.92;;;;;;;10.33;56.07;99396.02;1738092;81;21132;-62
2020/12/26 03:11:06;;;;;;;3.67;2.55;;;;;;;10.31;56.02;99397.52;1737964;81;21133;-63
2020/12/26 03:13:34;;;;;;;2.45;1.82;;;;;;;10.32;56.02;99397.03;1741788;81;21224;-63
2020/12/26 03:16:02;;;;;;;2.45;1.87;;;;;;;10.31;56.01;99398.02;1738203;81;21459;-63
2020/12/26 03:18:30;;;;;;;2.85;2.08;;;;;;;10.31;56.01;99413.44;1739732;81;21489;-62
2020/12/26 03:20:59;;;;;;;2.10;1.82;;;;;;;10.31;55.98;99410.78;1734813;81;21624;-62
2020/12/26 03:23:26;;;;;;;2.83;2.02;;;;;;;10.30;55.97;99408.30;1740638;81;21228;-61
2020/12/26 03:25:54;;;;;;;2.33;1.77;;;;;;;10.29;55.97;99414.09;1709164;81;21165;-62
2020/12/26 03:28:22;;;;;;;2.87;2.35;;;;;;;10.29;55.96;99419.39;1710082;83;21213;-63
2020/12/26 03:30:50;;;;;;;3.17;2.20;;;;;;;10.29;55.91;99422.56;1709822;83;21139;-62
2020/12/26 03:33:17;;;;;;;2.67;1.80;;;;;;;10.29;55.94;99424.70;1728340;83;21209;-60
2020/12/26 03:35:44;;;;;;;2.80;2.00;;;;;;;10.29;55.96;99424.70;1736022;81;21218;-62
2020/12/26 03:38:15;;;;;;;2.45;1.87;;;;;;;10.28;55.92;99419.09;1725542;82;21194;-61
2020/12/26 03:40:42;;;;;;;2.35;2.08;;;;;;;10.28;55.92;99425.72;1742279;81;23670;-62
2020/12/26 03:43:09;;;;;;;2.80;2.08;;;;;;;10.28;55.85;99428.89;1739813;81;21158;-61
2020/12/26 03:45:37;;;;;;;2.80;2.10;;;;;;;10.28;55.84;99426.23;1740430;81;21156;-61
2020/12/26 03:48:04;;;;;;;3.33;2.10;;;;;;;10.27;55.85;99416.09;1738635;81;21194;-62
2020/12/26 03:50:32;;;;;;;2.33;1.87;;;;;;;10.28;55.82;99415.61;1730970;81;21167;-62
2020/12/26 03:52:59;;;;;;;2.77;2.08;;;;;;;10.26;55.84;99413.13;1734810;81;21245;-61
2020/12/26 03:55:27;;;;;;;2.45;2.00;;;;;;;10.26;55.84;99422.89;1740588;81;21200;-62
2020/12/26 03:57:54;;;;;;;2.30;1.70;;;;;;;10.26;55.84;99417.11;1741596;81;21167;-61
2020/12/26 04:00:22;;;;;;;2.58;2.00;;;;;;;10.25;55.85;99415.44;1733171;81;21146;-61
2020/12/26 04:02:50;;;;;;;2.40;1.70;;;;;;;10.23;55.81;99414.28;1741049;81;21116;-61
2020/12/26 04:05:21;;;;;;;2.90;1.87;;;;;;;10.23;55.79;99410.80;1735788;81;21371;-61
2020/12/26 04:07:48;;;;;;;2.67;1.82;;;;;;;10.21;55.80;99410.16;1703045;83;21120;-61
2020/12/26 04:10:15;;;;;;;3.40;1.87;;;;;;;10.20;55.81;99413.83;1728582;83;21192;-61
2020/12/26 04:12:43;;;;;;;2.15;1.52;;;;;;;10.19;55.78;99416.14;1741680;81;21201;-61
2020/12/26 04:15:10;;;;;;;1.92;1.52;;;;;;;10.19;55.84;99422.78;1739087;81;21112;-61
2020/12/26 04:17:37;;;;;;;3.85;1.60;;;;;;;10.18;55.81;99422.47;1735240;81;21652;-61
2020/12/26 04:20:04;;;;;;;1.80;1.35;;;;;;;10.18;55.77;99427.77;1738770;81;21774;-61
2020/12/26 04:22:32;;;;;;;2.40;1.90;;;;;;;10.17;55.78;99430.09;1738410;81;21174;-60
2020/12/26 04:24:59;;;;;;;2.37;1.50;;;;;;;10.15;55.76;99430.77;1748088;79;21356;-61
2020/12/26 04:27:26;;;;;;;2.62;1.92;;;;;;;10.15;55.76;99441.38;1760486;80;21103;-60
2020/12/26 04:29:53;;;;;;;2.87;1.90;;;;;;;10.13;55.77;99438.89;1782382;80;21381;-62
2020/12/26 04:32:21;;;;;;;2.90;2.08;;;;;;;10.13;55.74;99448.19;1777221;80;21202;-62
2020/12/26 04:34:48;;;;;;;2.10;1.80;;;;;;;10.12;55.73;99449.20;1783132;80;21091;-61
2020/12/26 04:37:16;;;;;;;2.22;1.67;;;;;;;10.11;55.74;99447.53;1760447;80;21560;-61
2020/12/26 04:39:47;;;;;;;2.47;1.82;;;;;;;10.11;55.70;99446.70;1742909;80;21185;-60
2020/12/26 04:42:14;;;;;;;2.60;1.70;;;;;;;10.10;55.70;99435.75;1748533;80;21206;-61
2020/12/26 04:44:43;;;;;;;2.75;1.77;;;;;;;10.10;55.70;99451.67;1743630;80;21192;-61
2020/12/26 04:47:13;;;;;;;2.60;1.80;;;;;;;10.08;55.71;99455.83;1744244;81;21127;-62
2020/12/26 04:49:40;;;;;;;2.80;2.20;;;;;;;10.08;55.69;99465.11;1773391;80;21140;-62
2020/12/26 04:52:10;;;;;;;2.15;1.80;;;;;;;10.08;55.69;99465.63;1773735;80;21135;-62
2020/12/26 04:54:43;;;;;;;1.65;1.42;;;;;;;10.07;55.70;99461.33;1745874;80;21461;-62
2020/12/26 04:57:11;;;;;;;2.75;1.90;;;;;;;10.06;55.70;99466.30;1750070;80;21202;-62
2020/12/26 04:59:39;;;;;;;2.00;1.72;;;;;;;10.06;55.66;99474.25;1763489;80;21115;-63
2020/12/26 05:02:11;;;;;;;2.92;2.08;;;;;;;10.04;55.70;99474.42;1774095;80;21615;-63
2020/12/26 05:04:38;;;;;;;2.22;1.85;;;;;;;10.03;55.70;99480.23;1773780;79;21125;-62
2020/12/26 05:07:08;;;;;;;2.60;1.80;;;;;;;10.03;55.68;99474.11;1777225;79;21581;-62
2020/12/26 05:09:35;;;;;;;2.33;2.02;;;;;;;10.02;55.68;99471.96;1763521;79;21204;-62
2020/12/26 05:12:03;;;;;;;3.85;2.30;;;;;;;10.01;55.65;99468.97;1776022;79;21137;-62
2020/12/26 05:14:31;;;;;;;4.17;2.50;;;;;;;10.01;55.62;99479.58;1763050;80;21161;-62
2020/12/26 05:17:00;;;;;;;3.08;2.27;;;;;;;10.01;55.64;99482.23;1770062;79;21200;-62
2020/12/26 05:19:27;;;;;;;3.10;2.40;;;;;;;10.01;55.62;99467.64;1775278;80;22764;-62
2020/12/26 05:21:56;;;;;;;3.15;2.65;;;;;;;10.01;55.59;99469.47;1766429;80;21163;-62
2020/12/26 05:24:23;;;;;;;3.15;2.77;;;;;;;10.02;55.58;99472.44;1752974;80;21588;-62
2020/12/26 05:26:52;;;;;;;4.03;2.98;;;;;;;10.01;55.57;99476.11;1752445;79;21138;-62
2020/12/26 05:29:22;;;;;;;3.55;2.75;;;;;;;10.01;55.57;99476.11;1751433;79;21544;-61
2020/12/26 05:31:58;;;;;;;2.92;2.55;;;;;;;10.00;55.56;99480.56;1751276;79;21201;-61
2020/12/26 05:34:36;;;;;;;4.08;3.20;;;;;;;10.00;55.56;99480.56;1737598;81;21177;-61
2020/12/26 05:37:04;;;;;;;3.37;2.75;;;;;;;9.99;55.53;99477.59;1739285;80;21231;-60
2020/12/26 05:39:38;;;;;;;4.17;3.02;;;;;;;9.98;55.53;99481.23;1747364;81;21145;-60
2020/12/26 05:42:06;;;;;;;3.65;3.00;;;;;;;9.97;55.51;99481.43;1764362;81;21611;-61
2020/12/26 05:44:37;;;;;;;4.17;2.72;;;;;;;9.96;55.54;99480.58;1753056;79;21147;-61
2020/12/26 05:47:06;;;;;;;3.22;2.90;;;;;;;9.97;55.52;99488.06;1755799;81;21187;-62
2020/12/26 05:49:36;;;;;;;3.35;2.58;;;;;;;9.95;55.51;99494.05;1763732;79;21163;-63
2020/12/26 05:52:10;;;;;;;3.35;2.95;;;;;;;9.95;55.50;99497.52;1761792;81;21115;-61
2020/12/26 05:54:37;;;;;;;;;;;;;;;9.95;55.49;99503.33;1762947;79;21166;-61
2020/12/26 05:57:13;;;;;;;3.05;2.50;;;;;;;9.93;55.50;99503.97;1754071;79;21213;-61
2020/12/26 05:59:46;;;;;;;3.62;2.95;;;;;;;9.87;55.59;99505.50;1747633;79;21178;-61
2020/12/26 06:02:19;;;;;;;3.45;2.75;;;;;;;9.87;55.59;99502.00;1761115;79;21130;-61
2020/12/26 06:04:57;;;;;;;3.40;2.67;;;;;;;9.86;55.58;99504.34;1779213;80;21672;-62
2020/12/26 06:07:27;;;;;;;4.08;2.72;;;;;;;9.86;55.57;99518.42;1772605;80;21139;-62
2020/12/26 06:10:00;;;;;;;3.17;2.60;;;;;;;9.85;55.57;99522.09;1771964;79;21360;-62
2020/12/26 06:12:29;;;;;;;3.25;2.45;;;;;;;9.84;55.55;99527.05;1741193;80;21131;-62
2020/12/26 06:14:57;;;;;;;3.75;3.10;;;;;;;9.84;55.53;99528.38;1755641;81;21183;-62
2020/12/26 06:17:29;;;;;;;2.90;2.45;;;;;;;9.84;55.52;99527.05;1753134;81;21654;-61
2020/12/26 06:20:05;;;;;;;2.55;2.08;;;;;;;9.83;55.52;99526.71;1760213;80;21218;-62
2020/12/26 06:22:47;;;;;;;3.22;2.70;;;;;;;9.81;55.49;99530.88;1761079;81;21187;-62
2020/12/26 06:25:19;;;;;;;4.05;2.47;;;;;;;9.83;55.50;99538.65;1759368;80;21190;-62
2020/12/26 06:27:56;;;;;;;3.27;2.98;;;;;;;9.81;55.49;99540.17;1771335;80;21166;-62
2020/12/26 06:30:23;;;;;;;2.80;2.15;;;;;;;9.81;55.49;99540.64;1750391;80;21207;-62
2020/12/26 06:32:51;;;;;;;3.10;2.50;;;;;;;9.80;55.52;99542.98;1761027;80;21162;-62
2020/12/26 06:35:19;;;;;;;2.95;2.30;;;;;;;9.80;55.48;99541.66;1771794;80;21198;-62
2020/12/26 06:37:48;;;;;;;3.45;2.52;;;;;;;9.80;55.48;99543.80;1750661;80;21630;-62
2020/12/26 06:40:30;;;;;;;2.72;2.40;;;;;;;9.80;55.48;99542.98;1748445;80;21151;-62
2020/12/26 06:42:58;;;;;;;2.40;2.12;;;;;;;9.81;55.44;99548.60;1746661;81;21429;-62
2020/12/26 06:45:36;;;;;;;3.42;3.00;;;;;;;9.74;55.45;99548.97;1769260;80;21129;-61
2020/12/26 06:48:04;;;;;;;2.98;2.30;;;;;;;9.80;55.46;99565.53;1774258;80;21207;-63
2020/12/26 06:50:32;;;;;;;2.80;2.35;;;;;;;9.78;55.43;99568.34;1778615;80;21135;-61
2020/12/26 06:53:01;;;;;;;3.00;2.40;;;;;;;9.78;55.41;99564.37;1754574;80;21627;-63
2020/12/26 06:55:47;;;;;;;3.35;2.70;;;;;;;9.80;55.39;99568.19;1775303;80;21154;-61
2020/12/26 06:58:29;;;;;;;3.65;2.35;;;;;;;9.81;55.37;99564.52;1747273;80;21600;-62
2020/12/26 07:00:56;;;;;;;3.75;3.00;;;;;;;9.81;55.36;99568.03;1742223;80;21513;-62
2020/12/26 07:03:29;;;;;;;2.58;2.25;;;;;;;9.81;55.30;99568.03;1756407;80;21181;-61
2020/12/26 07:05:57;;;;;;;3.27;2.42;;;;;;;9.81;55.30;99567.17;1759563;81;21107;-62
2020/12/26 07:08:29;;;;;;;2.95;2.33;;;;;;;9.82;55.28;99566.20;1782914;80;21148;-62
2020/12/26 07:11:03;;;;;;;3.08;2.58;;;;;;;9.83;55.25;99569.16;1770511;80;21615;-62
2020/12/26 07:13:51;;;;;;;3.08;2.30;;;;;;;9.84;55.24;99578.28;1768154;80;21272;-62
2020/12/26 07:16:43;;;;;;;3.08;2.30;;;;;;;9.86;55.22;99582.11;1759503;80;21178;-62
2020/12/26 07:19:27;;;;;;;3.75;2.40;;;;;;;9.86;55.21;99583.43;1778757;80;21145;-61
2020/12/26 07:22:08;;;;;;;3.50;2.50;;;;;;;9.86;55.23;99576.80;1777691;80;21140;-62
2020/12/26 07:24:44;;;;;;;3.00;2.40;;;;;;;9.88;55.25;99572.66;1754095;81;21143;-62
2020/12/26 07:27:34;;;;;;;4.28;2.60;;;;;;;9.88;55.21;99573.48;1757267;79;21336;-62
2020/12/26 07:30:18;;;;;;;3.25;2.45;;;;;;;9.89;55.19;99580.45;1756564;79;21155;-61
2020/12/26 07:32:54;;;;;;;;;;;;;;;9.91;55.20;99591.73;1741624;79;21142;-62
2020/12/26 07:35:28;;;;;;;3.12;2.50;;;;;;;9.93;55.20;99583.10;1760070;79;20572;-63
2020/12/26 07:38:05;;;;;;;2.60;2.35;;;;;;;9.87;55.32;99586.91;1747804;80;21172;-63
2020/12/26 07:40:35;;;;;;;3.25;2.40;;;;;;;9.89;55.28;99587.09;1752809;79;21249;-62
2020/12/26 07:43:09;;;;;;;3.33;2.58;;;;;;;9.93;55.25;99600.35;1754516;79;21178;-62
2020/12/26 07:45:38;;;;;;;2.80;2.50;;;;;;;9.95;55.20;99606.83;1762447;79;21622;-62
2020/12/26 07:48:06;;;;;;;2.98;2.50;;;;;;;9.97;55.20;99610.95;1763808;79;21174;-61
2020/12/26 07:50:36;;;;;;;2.77;2.42;;;;;;;9.99;55.17;99615.59;1750709;79;21147;-62
2020/12/26 07:53:06;;;;;;;3.20;2.40;;;;;;;10.01;55.10;99612.28;1760313;79;21201;-62
2020/12/26 07:55:34;;;;;;;2.98;2.33;;;;;;;10.04;55.07;99609.77;1758732;79;21576;-62
2020/12/26 07:58:08;;;;;;;3.85;2.80;;;;;;;10.07;55.03;99616.59;1762120;79;21162;-62
2020/12/26 08:00:38;;;;;;;2.62;2.20;;;;;;;10.10;54.98;99622.88;1757316;79;21183;-63
2020/12/26 08:03:07;;;;;;;2.65;2.20;;;;;;;10.11;54.95;99627.20;1757425;79;21138;-62
2020/12/26 08:05:37;;;;;;;2.33;2.08;;;;;;;10.14;54.92;99629.50;1744498;79;21212;-65
2020/12/26 08:08:27;;;;;;;2.62;2.30;;;;;;;10.16;54.86;99632.81;1759951;81;21178;-63
2020/12/26 08:10:58;;;;;;;3.17;2.42;;;;;;;10.16;54.83;99636.33;1741583;81;21190;-65
2020/12/26 08:13:27;;;;;;;2.75;2.27;;;;;;;10.17;54.79;99631.83;1757379;79;21171;-61
2020/12/26 08:16:04;;;;;;;2.75;2.30;;;;;;;10.19;54.78;99631.16;1763590;79;21674;-63
2020/12/26 08:18:34;;;;;;;3.27;2.33;;;;;;;10.21;54.74;99625.19;1749206;81;21395;-62
2020/12/26 08:21:01;;;;;;;2.90;2.22;;;;;;;10.21;54.70;99627.33;1779316;80;21661;-62
2020/12/26 08:23:28;;;;;;;3.08;2.37;;;;;;;10.23;54.68;99633.81;1745707;81;21163;-62
2020/12/26 08:26:02;;;;;;;3.60;2.52;;;;;;;10.24;54.66;99638.14;1747207;80;21195;-62
2020/12/26 08:28:30;;;;;;;2.90;2.10;;;;;;;10.25;54.63;99637.13;1722142;83;21148;-61
2020/12/26 08:31:02;;;;;;;3.90;2.47;;;;;;;10.27;54.58;99640.95;1711001;83;21558;-64
2020/12/26 08:33:30;;;;;;;2.83;2.10;;;;;;;10.29;54.56;99640.27;1699102;83;21152;-62
2020/12/26 08:36:13;;;;;;;3.45;2.50;;;;;;;10.29;54.56;99634.45;1715224;83;21202;-63
2020/12/26 08:38:48;;;;;;;2.30;2.02;;;;;;;10.30;54.50;99642.80;1755397;81;21119;-63
2020/12/26 08:41:57;;;;;;;3.75;2.37;;;;;;;10.36;54.50;99638.64;1799792;79;28705;-64
2020/12/26 08:44:24;;;;;;;4.03;2.87;;;;;;;10.32;54.45;99628.86;1761690;80;21666;-65
2020/12/26 08:46:52;;;;;;;2.87;2.35;;;;;;;10.35;54.70;99631.66;1704702;80;22175;-64
2020/12/26 08:49:19;;;;;;;4.05;2.70;;;;;;;10.37;54.77;99619.89;1771958;80;21143;-63
2020/12/26 08:51:46;;;;;;;3.85;2.60;;;;;;;10.39;54.81;99613.91;1780761;79;21248;-63
2020/12/26 08:54:23;;;;;;;5.30;2.98;;;;;;;10.41;54.77;99601.28;1782085;79;21166;-62
2020/12/26 08:56:52;;;;;;;3.42;2.60;;;;;;;10.43;54.73;99596.63;1772503;79;21152;-65
2020/12/26 08:59:27;;;;;;;3.50;2.70;;;;;;;10.45;54.68;99583.66;1788061;79;21641;-64
2020/12/26 09:01:55;;;;;;;3.47;2.67;;;;;;;10.46;54.64;99570.73;1773810;79;21199;-63
2020/12/26 09:04:23;;;;;;;3.62;3.00;;;;;;;10.48;54.60;99579.35;1796100;79;21152;-62
2020/12/26 09:06:50;;;;;;;4.25;2.87;;;;;;;10.49;54.53;99569.04;1787282;79;21163;-63
2020/12/26 09:09:25;;;;;;;3.50;2.60;;;;;;;10.50;54.48;99566.73;1784153;78;21170;-65
2020/12/26 09:12:05;;;;;;;4.05;3.02;;;;;;;10.51;54.42;99570.55;1796485;78;21271;-62
2020/12/26 09:14:32;;;;;;;4.95;3.75;;;;;;;10.52;54.43;99574.02;1777672;80;21124;-65
2020/12/26 09:17:01;;;;;;;5.62;3.35;;;;;;;10.52;54.37;99577.50;1743951;81;21579;-64
2020/12/26 09:19:43;;;;;;;4.45;2.90;;;;;;;10.55;59.24;99567.05;1748010;81;21107;-65
2020/12/26 09:22:11;;;;;;;5.08;2.90;;;;;;;10.72;58.65;99585.91;1745876;80;21172;-65
2020/12/26 09:24:38;;;;;;;4.40;2.80;;;;;;;10.93;58.71;99598.60;1751990;81;21454;-65
2020/12/26 09:27:20;;;;;;;4.53;2.90;;;;;;;10.99;59.66;99599.70;1751747;81;21143;-65
2020/12/26 09:29:51;;;;;;;4.53;3.00;;;;;;;11.02;60.14;99608.16;1755872;81;21579;-64
2020/12/26 09:32:18;;;;;;;3.75;2.80;;;;;;;11.04;60.21;99609.83;1742897;80;21132;-65
2020/12/26 09:34:46;;;;;;;4.40;2.92;;;;;;;11.05;60.10;99628.27;1759074;80;21157;-65
2020/12/26 09:37:13;;;;;;;4.87;3.08;;;;;;;11.06;59.89;99636.56;1741681;82;21384;-65
2020/12/26 09:39:40;;;;;;;5.22;2.80;;;;;;;11.07;59.67;99645.36;1765149;79;21123;-65
2020/12/26 09:42:08;;;;;;;6.95;2.87;;;;;;;11.07;59.41;99647.53;1758631;81;21146;-66
2020/12/26 09:44:36;;;;;;;5.92;3.00;;;;;;;11.07;59.21;99655.52;1754977;81;21139;-65
2020/12/26 09:47:06;;;;;;;3.87;2.95;;;;;;;11.06;58.94;99652.52;1755806;81;21127;-68
2020/12/26 09:49:33;;;;;;;4.92;3.12;;;;;;;11.06;58.71;99659.16;1739856;81;22471;-64
2020/12/26 09:52:01;;;;;;;3.92;3.20;;;;;;;11.05;58.45;99657.99;1750869;80;21155;-68
2020/12/26 09:54:28;;;;;;;4.03;3.02;;;;;;;11.04;58.24;99659.83;1769792;80;22084;-67
2020/12/26 09:56:56;;;;;;;4.53;2.87;;;;;;;11.04;58.04;99672.30;1780749;80;21155;-66
2020/12/26 09:59:24;;;;;;;5.50;3.25;;;;;;;11.03;57.84;99674.14;1764776;80;21147;-64
2020/12/26 10:01:51;;;;;;;4.87;3.22;;;;;;;11.01;57.60;99665.52;1769300;80;23575;-64
2020/12/26 10:04:19;;;;;;;5.87;3.30;;;;;;;11.00;57.45;99665.17;1755804;81;21656;-64
2020/12/26 10:06:46;;;;;;;4.35;3.33;;;;;;;10.99;57.34;99669.66;1751704;80;21414;-62
2020/12/26 10:09:13;;;;;;;3.20;2.80;;;;;;;10.97;57.16;99664.17;1756663;81;21183;-63
2020/12/26 10:11:41;;;;;;;5.70;3.00;;;;;;;10.97;57.04;99662.84;1751289;81;21186;-62
2020/12/26 10:14:09;;;;;;;4.12;3.02;;;;;;;10.95;56.92;99669.69;1748312;81;22114;-63
2020/12/26 10:16:37;;;;;;;4.78;3.35;;;;;;;10.94;56.79;99673.84;1748858;81;21178;-67
2020/12/26 10:19:05;;;;;;;4.42;3.02;;;;;;;10.93;56.70;99671.69;1746607;81;21644;-67
2020/12/26 10:21:34;;;;;;;5.42;3.20;;;;;;;10.92;56.58;99670.02;1745669;81;21199;-68
2020/12/26 10:24:03;;;;;;;4.90;3.55;;;;;;;10.93;56.47;99665.52;1739341;81;21183;-69
2020/12/26 10:26:30;;;;;;;5.75;3.60;;;;;;;10.93;56.35;99666.85;1752439;81;21214;-68
2020/12/26 10:28:59;;;;;;;5.40;3.52;;;;;;;10.92;56.29;99666.54;1756896;81;21615;-68
2020/12/26 10:31:29;;;;;;;4.67;3.52;;;;;;;10.92;56.20;99658.56;1752916;81;21230;-68
2020/12/26 10:33:58;;;;;;;6.33;3.42;;;;;;;10.91;56.12;99667.02;1747482;81;21160;-67
2020/12/26 10:36:25;;;;;;;4.85;3.25;;;;;;;10.92;56.06;99665.21;1743906;81;21162;-68
2020/12/26 10:39:01;;;;;;;3.72;2.75;;;;;;;10.90;55.98;99670.69;1715755;80;21373;-69
2020/12/26 10:41:28;;;;;;;4.03;3.45;;;;;;;10.91;55.90;99679.48;1749536;81;21191;-68
2020/12/26 10:43:56;;;;;;;6.00;3.67;;;;;;;10.89;55.85;99678.32;1758143;81;21578;-66
2020/12/26 10:46:24;;;;;;;5.83;3.83;;;;;;;10.90;55.78;99683.16;1746759;81;21145;-67
2020/12/26 10:48:53;;;;;;;4.92;3.37;;;;;;;10.90;55.74;99676.52;1747649;81;21225;-68
2020/12/26 10:51:21;;;;;;;4.50;3.47;;;;;;;10.91;55.67;99676.83;1748425;81;21269;-67
2020/12/26 10:53:49;;;;;;;3.75;2.92;;;;;;;10.90;55.60;99680.50;1750092;81;22393;-67
2020/12/26 10:56:16;;;;;;;5.25;3.65;;;;;;;10.89;55.57;99686.30;1746439;81;21111;-67
2020/12/26 10:58:44;;;;;;;4.83;3.33;;;;;;;10.90;55.49;99696.45;1752848;81;21162;-68
2020/12/26 11:01:11;;;;;;;4.92;3.35;;;;;;;10.88;55.41;99680.67;1757206;81;21131;-68
2020/12/26 11:03:39;;;;;;;4.20;3.52;;;;;;;10.89;55.38;99678.83;1748534;81;22141;-67
2020/12/26 11:06:08;;;;;;;4.28;3.22;;;;;;;10.89;55.33;99682.81;1750237;81;21165;-68
2020/12/26 11:08:36;;;;;;;5.00;3.50;;;;;;;10.89;55.26;99694.78;1707199;81;21171;-68
2020/12/26 11:11:04;;;;;;;5.30;3.70;;;;;;;10.87;55.22;99690.95;1753501;81;21190;-67
2020/12/26 11:13:32;;;;;;;5.03;3.67;;;;;;;10.87;55.20;99698.93;1749978;81;21179;-67
2020/12/26 11:15:59;;;;;;;5.47;3.83;;;;;;;10.87;55.14;99700.26;1762100;81;21360;-67
2020/12/26 11:18:27;;;;;;;5.30;4.03;;;;;;;10.87;55.08;99698.11;1755793;81;21210;-66
2020/12/26 11:20:54;;;;;;;4.33;3.47;;;;;;;10.86;55.05;99693.81;1757026;81;21214;-68
2020/12/26 11:23:21;;;;;;;4.70;3.30;;;;;;;10.85;55.02;99698.27;1750357;81;21115;-67
2020/12/26 11:25:49;;;;;;;4.40;3.40;;;;;;;10.85;54.97;99700.93;1742878;81;21175;-68
2020/12/26 11:28:18;;;;;;;5.25;3.80;;;;;;;10.84;54.95;99696.63;1751631;81;21589;-67
2020/12/26 11:30:45;;;;;;;5.58;3.67;;;;;;;10.83;54.91;99702.93;1748291;81;21493;-66
2020/12/26 11:33:13;;;;;;;4.83;3.62;;;;;;;10.82;54.87;99702.11;1744538;81;21209;-66
2020/12/26 11:35:40;;;;;;;4.50;3.65;;;;;;;10.84;54.86;99699.80;1747175;81;21832;-67
2020/12/26 11:38:07;;;;;;;4.90;3.90;;;;;;;10.81;54.83;99692.97;1758436;81;21638;-67
2020/12/26 11:40:35;;;;;;;5.10;4.08;;;;;;;10.81;54.81;99691.64;1750361;81;21609;-65
2020/12/26 11:43:04;;;;;;;5.20;3.75;;;;;;;10.79;54.81;99690.48;1749709;81;22166;-67
2020/12/26 11:45:32;;;;;;;6.42;4.53;;;;;;;10.79;54.78;99701.11;1777219;80;21147;-67
2020/12/26 11:47:59;;;;;;;5.17;3.40;;;;;;;10.79;54.80;99702.95;1743368;81;21227;-66